Nearby METAR Reports

Actuele Vliegveldwaarnemingen NL (METAR).Zie KNMI uitleg METAR hier

EHAM - Amsterdam/Schiph, Netherlands
Distance from station: ONO 18km
Updated: 09/12/2021 01:55
Few Clouds
Few Clouds
 Wind van Z
Wind: Z 20 km/h
Temperatuur: 3°C
Wind Chill: -2°C
Dauwpunt: 1°C
Vochtigheid: 87%
Barometer: 1000 hPa
Clouds: Few Clouds
Visibility: 10 km
Cloud details: Few Clouds 1219 m
2021/12/09 00:55 EHAM 090055Z 18011KT 140V210 9999 FEW040 03/01 Q1000 NOSIG
EHKD - DE KOOY/DE KOOY
Updated: 09/12/2021 01:55
Zwaar bewolkt
Zwaar bewolkt
 Wind van Z
Wind: Z 22 km/h
Temperatuur: 4°C
Wind Chill: -1°C
Dauwpunt: 2°C
Vochtigheid: 87%
Barometer: 998 hPa
Clouds: Zwaar bewolkt
Visibility: 10 km
Cloud details: Few Clouds 1311 m
Meestal bewolkt 1463 m
Zwaar bewolkt 1585 m
2021/12/09 00:55 EHKD 090055Z AUTO 17012KT 9999 FEW043 BKN048 OVC052 04/02 Q0998 BLU
 
EHLW - LEEUWARDEN/LEEUWARDEN
Updated: 09/12/2021 01:55
Helder
Helder
 Wind van Z
Wind: Z 15 km/h
Temperatuur: 2°C
Wind Chill: -2°C
Dauwpunt: 1°C
Vochtigheid: 93%
Barometer: 1000 hPa
Clouds: Helder
Visibility: 10 km
2021/12/09 00:55 EHLW 090055Z AUTO 17008KT 150V210 9999 NCD 02/01 Q1000 BLU
EHVK - VOLKEL/VOLKEL
Updated: 09/12/2021 01:55
Helder
Helder
 Wind van ZZW
Wind: ZZW 15 km/h
Temperatuur: 2°C
Wind Chill: -2°C
Dauwpunt: 1°C
Vochtigheid: 93%
Barometer: 1001 hPa
Clouds: Helder
Visibility: 10 km
2021/12/09 00:55 EHVK 090055Z AUTO 21008KT 160V230 9999 NCD 02/01 Q1001 BLU
 
EHFS - VLISSINGEN
Updated: 09/12/2021 01:55
Gedeeltelijk bewolkt
Gedeeltelijk bewolkt
 Wind van Z
Wind: Z 30 km/h
Temperatuur: 5°C
Wind Chill: 0°C
Dauwpunt: 3°C
Vochtigheid: 87%
Barometer: 1000 hPa
Clouds: Gedeeltelijk bewolkt
Visibility: 10 km
2021/12/09 00:55 EHFS 090055Z AUTO 19016KT 9999 NSC 05/03 Q1000
EHEH - EINDHOVEN/EINDHOVEN
Updated: 09/12/2021 01:55
Meestal bewolkt
Meestal bewolkt
 Wind van Z
Wind: Z 13 km/h
Temperatuur: 2°C
Wind Chill: -1°C
Dauwpunt: 1°C
Vochtigheid: 93%
Barometer: 1002 hPa
Clouds: Meestal bewolkt
Visibility: 10 km
Cloud details: Meestal bewolkt 975 m
Meestal bewolkt 2530 m
2021/12/09 00:55 EHEH 090055Z AUTO 17007KT 150V210 9999 BKN032 BKN083 02/01 Q1002 BLU
 
EHGR - GILZE-RIJEN/GILZE-RIJEN
Updated: 09/12/2021 01:55
Helder
Helder
 Wind van Z
Wind: Z 17 km/h
Temperatuur: 2°C
Wind Chill: -2°C
Dauwpunt: 1°C
Vochtigheid: 93%
Barometer: 1001 hPa
Clouds: Helder
Visibility: 10 km
2021/12/09 00:55 EHGR 090055Z AUTO 19009KT 140V230 9999 NCD 02/01 Q1001 BLU
EHDL - ARNHEM/DEELEN
Updated: 09/12/2021 01:55
Meestal bewolkt
Meestal bewolkt
 Wind van Z
Wind: Z 11 km/h
Temperatuur: 1°C
Wind Chill: -2°C
Dauwpunt: 1°C
Vochtigheid: 100%
Barometer: 1001 hPa
Clouds: Meestal bewolkt
Visibility: 10 km
Cloud details: Meestal bewolkt 6706 m
2021/12/09 00:55 EHDL 090055Z AUTO 18006KT 090V200 9999 BKN220 01/01 Q1001 BLU
 
EHBK - MAASTRICHT/MAASTRICHT-AACHEN
Updated: 09/12/2021 01:55
Meestal bewolkt
Meestal bewolkt
 Wind van ZZW
Wind: ZZW 19 km/h
Temperatuur: 3°C
Wind Chill: -2°C
Dauwpunt: 1°C
Vochtigheid: 87%
Barometer: 1003 hPa
Clouds: Meestal bewolkt
Visibility: 10 km
Cloud details: Few Clouds 1189 m
Meestal bewolkt 1433 m
2021/12/09 00:55 EHBK 090055Z AUTO 20010KT 9999 FEW039 BKN047 03/01 Q1003